createdAt,value
2019-02-26T00:01:26.327Z,6.30
2019-02-26T00:03:56.690Z,4.70
2019-02-26T00:06:27.858Z,4.60
2019-02-26T00:08:58.782Z,3.13
2019-02-26T00:11:28.992Z,5.17
2019-02-26T00:13:59.019Z,4.30
2019-02-26T00:16:28.330Z,5.30
2019-02-26T00:19:00.779Z,4.63
2019-02-26T00:21:29.297Z,4.90
2019-02-26T00:23:59.289Z,4.50
2019-02-26T00:26:28.282Z,6.47
2019-02-26T00:28:59.597Z,3.57
2019-02-26T00:31:28.854Z,4.47
2019-02-26T00:33:59.399Z,9.97
2019-02-26T00:36:29.727Z,3.43
2019-02-26T00:39:00.632Z,4.40
2019-02-26T00:41:31.835Z,4.37
2019-02-26T00:44:02.236Z,10.37
2019-02-26T00:46:32.517Z,4.77
2019-02-26T00:49:03.126Z,5.10
2019-02-26T00:51:33.355Z,4.57
2019-02-26T00:54:04.104Z,5.50
2019-02-26T00:56:34.050Z,3.50
2019-02-26T00:59:04.070Z,4.50
2019-02-26T01:01:33.549Z,4.73
2019-02-26T01:04:02.526Z,4.27
2019-02-26T01:06:33.432Z,4.00
2019-02-26T01:09:05.487Z,6.60
2019-02-26T01:11:33.157Z,4.57
2019-02-26T01:14:02.210Z,5.17
2019-02-26T01:16:31.546Z,4.80
2019-02-26T01:19:00.854Z,5.63
2019-02-26T01:21:31.111Z,6.23
2019-02-26T01:24:01.730Z,4.37
2019-02-26T01:26:31.610Z,5.37
2019-02-26T01:29:01.015Z,8.07
2019-02-26T01:31:33.880Z,6.83
2019-02-26T01:34:03.974Z,5.73
2019-02-26T01:36:33.030Z,4.63
2019-02-26T01:39:02.107Z,3.90
2019-02-26T01:41:31.149Z,3.53
2019-02-26T01:44:00.205Z,5.97
2019-02-26T01:46:32.130Z,4.20
2019-02-26T01:49:02.104Z,4.47
2019-02-26T01:51:31.613Z,3.90
2019-02-26T01:54:01.094Z,4.03
2019-02-26T01:56:30.078Z,6.10
2019-02-26T01:59:02.154Z,3.57
2019-02-26T02:01:30.074Z,4.83
2019-02-26T02:03:59.121Z,3.83
2019-02-26T02:06:30.173Z,4.93
2019-02-26T02:08:58.982Z,5.63
2019-02-26T02:11:29.403Z,5.63
2019-02-26T02:14:01.901Z,5.07
2019-02-26T02:16:31.401Z,6.00
2019-02-26T02:19:00.838Z,3.87
2019-02-26T02:21:31.508Z,5.33
2019-02-26T02:24:00.686Z,3.97
2019-02-26T02:26:29.742Z,4.63
2019-02-26T02:28:58.764Z,6.50
2019-02-26T02:31:31.268Z,4.43
2019-02-26T02:33:58.671Z,4.33
2019-02-26T02:36:28.228Z,6.00
2019-02-26T02:38:57.390Z,5.63
2019-02-26T02:41:26.684Z,6.53
2019-02-26T02:43:55.732Z,4.20
2019-02-26T02:46:24.988Z,6.13
2019-02-26T02:48:54.073Z,5.67
2019-02-26T02:51:25.532Z,5.63
2019-02-26T02:53:56.473Z,6.20
2019-02-26T02:56:24.755Z,8.47
2019-02-26T02:58:53.814Z,9.40
2019-02-26T03:01:25.819Z,8.30
2019-02-26T03:03:56.450Z,5.37
2019-02-26T03:06:27.290Z,6.53
2019-02-26T03:08:55.583Z,6.53
2019-02-26T03:11:24.739Z,6.57
2019-02-26T03:13:53.982Z,6.83
2019-02-26T03:16:25.036Z,7.27
2019-02-26T03:18:54.211Z,7.67
2019-02-26T03:21:24.665Z,8.87
2019-02-26T03:23:54.322Z,7.70
2019-02-26T03:26:25.295Z,7.37
2019-02-26T03:28:54.055Z,7.77
2019-02-26T03:31:28.782Z,6.90
2019-02-26T03:33:59.943Z,7.33
2019-02-26T03:36:25.043Z,10.77
2019-02-26T03:38:56.611Z,10.07
2019-02-26T03:41:26.162Z,12.00
2019-02-26T03:43:58.463Z,9.60
2019-02-26T03:46:26.984Z,6.90
2019-02-26T03:48:56.026Z,8.63
2019-02-26T03:51:25.081Z,11.43
2019-02-26T03:53:54.430Z,8.57
2019-02-26T03:56:23.500Z,10.10
2019-02-26T03:58:56.969Z,8.70
2019-02-26T04:01:24.994Z,10.40
2019-02-26T04:03:54.717Z,6.70
2019-02-26T04:06:24.851Z,7.87
2019-02-26T04:08:55.967Z,8.07
2019-02-26T04:11:27.671Z,10.67
2019-02-26T04:13:56.734Z,9.10
2019-02-26T04:16:26.060Z,8.83
2019-02-26T04:18:55.094Z,8.77
2019-02-26T04:21:24.160Z,7.77
2019-02-26T04:23:54.078Z,9.30
2019-02-26T04:27:01.178Z,9.20
2019-02-26T04:29:58.330Z,8.90
2019-02-26T04:33:06.573Z,9.10
2019-02-26T04:35:56.338Z,8.73
2019-02-26T04:38:50.739Z,7.93
2019-02-26T04:41:55.591Z,11.80
2019-02-26T04:45:09.244Z,9.73
2019-02-26T04:47:40.717Z,8.07
2019-02-26T04:50:10.308Z,7.03
2019-02-26T04:52:41.215Z,7.80
2019-02-26T04:55:10.728Z,14.40
2019-02-26T04:57:42.612Z,9.47
2019-02-26T05:00:11.294Z,12.03
2019-02-26T05:02:40.540Z,8.60
2019-02-26T05:05:09.540Z,9.13
2019-02-26T05:07:41.432Z,11.07
2019-02-26T05:10:09.759Z,9.57
2019-02-26T05:12:40.205Z,8.93
2019-02-26T05:15:14.007Z,10.97
2019-02-26T05:17:40.745Z,8.47
2019-02-26T05:20:12.999Z,11.67
2019-02-26T05:22:40.618Z,8.27
2019-02-26T05:25:13.974Z,9.60
2019-02-26T05:27:42.895Z,10.97
2019-02-26T05:30:15.542Z,9.30
2019-02-26T05:32:42.896Z,9.60
2019-02-26T05:35:14.160Z,8.70
2019-02-26T05:37:43.333Z,11.77
2019-02-26T05:40:15.369Z,7.73
2019-02-26T05:42:43.554Z,11.03
2019-02-26T05:45:12.625Z,11.17
2019-02-26T05:47:43.037Z,7.07
2019-02-26T05:50:16.111Z,7.00
2019-02-26T05:52:43.890Z,9.47
2019-02-26T05:55:14.618Z,10.53
2019-02-26T05:57:44.730Z,7.87
2019-02-26T06:00:17.230Z,7.10
2019-02-26T06:02:48.542Z,8.40
2019-02-26T06:05:18.386Z,8.27
2019-02-26T06:07:47.447Z,10.73
2019-02-26T06:10:18.898Z,6.97
2019-02-26T06:12:47.641Z,7.93
2019-02-26T06:15:23.015Z,7.03
2019-02-26T06:17:53.906Z,8.27
2019-02-26T06:20:26.721Z,8.43
2019-02-26T06:22:55.570Z,6.43
2019-02-26T06:25:24.836Z,10.60
2019-02-26T06:27:53.922Z,7.60
2019-02-26T06:30:23.091Z,9.43
2019-02-26T06:32:52.513Z,8.93
2019-02-26T06:35:22.361Z,8.40
2019-02-26T06:37:51.450Z,9.87
2019-02-26T06:40:20.548Z,9.80
2019-02-26T06:42:49.916Z,7.53
2019-02-26T06:45:19.581Z,8.33
2019-02-26T06:47:51.274Z,9.60
2019-02-26T06:50:19.637Z,10.77
2019-02-26T06:52:50.715Z,10.70
2019-02-26T06:55:20.111Z,9.23
2019-02-26T06:57:50.771Z,9.27
2019-02-26T07:00:23.789Z,9.00
2019-02-26T07:02:51.418Z,8.40
2019-02-26T07:05:23.807Z,9.90
2019-02-26T07:07:54.060Z,9.90
2019-02-26T07:10:25.996Z,9.50
2019-02-26T07:12:53.802Z,10.13
2019-02-26T07:15:23.392Z,7.50
2019-02-26T07:17:52.783Z,7.77
2019-02-26T07:20:21.880Z,8.33
2019-02-26T07:22:51.694Z,10.20
2019-02-26T07:25:21.071Z,13.10
2019-02-26T07:27:51.308Z,10.20
2019-02-26T07:30:21.014Z,8.63
2019-02-26T07:32:50.098Z,7.83
2019-02-26T07:35:19.539Z,6.03
2019-02-26T07:37:52.702Z,8.10
2019-02-26T07:40:22.939Z,7.60
2019-02-26T07:42:51.968Z,8.93
2019-02-26T07:45:22.877Z,7.80
2019-02-26T07:47:54.079Z,8.67
2019-02-26T07:50:23.318Z,6.97
2019-02-26T07:52:55.279Z,7.20
2019-02-26T07:55:24.219Z,7.37
2019-02-26T07:57:53.356Z,5.20
2019-02-26T08:00:24.017Z,8.13
2019-02-26T08:02:54.777Z,9.70
2019-02-26T08:05:26.202Z,7.67
2019-02-26T08:07:56.489Z,8.10
2019-02-26T08:10:25.798Z,8.10
2019-02-26T08:12:56.627Z,6.33
2019-02-26T08:15:27.852Z,6.47
2019-02-26T08:17:59.950Z,6.53
2019-02-26T08:20:30.216Z,5.33
2019-02-26T08:23:01.205Z,9.60
2019-02-26T08:25:29.769Z,8.47
2019-02-26T08:28:01.077Z,5.53
2019-02-26T08:30:29.797Z,7.50
2019-02-26T08:33:01.808Z,6.40
2019-02-26T08:35:30.477Z,7.10
2019-02-26T08:38:00.432Z,7.43
2019-02-26T08:40:29.487Z,5.97
2019-02-26T08:42:58.555Z,7.57
2019-02-26T08:45:28.011Z,8.60
2019-02-26T08:47:57.118Z,8.77
2019-02-26T08:50:28.494Z,9.07
2019-02-26T08:52:58.521Z,9.67
2019-02-26T08:55:27.806Z,12.50
2019-02-26T08:57:57.028Z,19.27
2019-02-26T09:00:26.862Z,26.93
2019-02-26T09:02:56.716Z,30.47
2019-02-26T09:05:28.235Z,18.13
2019-02-26T09:07:57.532Z,29.87
2019-02-26T09:10:26.598Z,24.13
2019-02-26T09:12:55.646Z,24.97
2019-02-26T09:15:24.834Z,27.70
2019-02-26T09:17:53.807Z,28.77
2019-02-26T09:20:22.850Z,33.20
2019-02-26T09:22:54.501Z,29.67
2019-02-26T09:25:25.957Z,35.67
2019-02-26T09:27:53.682Z,32.40
2019-02-26T09:30:22.735Z,24.37
2019-02-26T09:32:52.480Z,25.03
2019-02-26T09:35:27.050Z,32.37
2019-02-26T09:37:56.379Z,33.43
2019-02-26T09:40:26.562Z,28.17
2019-02-26T09:42:57.271Z,27.70
2019-02-26T09:45:29.589Z,55.07
2019-02-26T09:47:58.037Z,25.25
2019-02-26T09:50:27.453Z,23.67
2019-02-26T09:52:59.131Z,24.43
2019-02-26T09:55:27.727Z,25.80
2019-02-26T09:57:56.866Z,24.63
2019-02-26T10:00:29.316Z,25.43
2019-02-26T10:02:57.778Z,23.63
2019-02-26T10:05:26.835Z,19.77
2019-02-26T10:07:57.995Z,19.63
2019-02-26T10:10:29.115Z,20.53
2019-02-26T10:13:01.457Z,20.33
2019-02-26T10:15:28.574Z,19.53
2019-02-26T10:17:59.566Z,19.47
2019-02-26T10:20:31.694Z,18.97
2019-02-26T10:23:02.805Z,18.17
2019-02-26T10:25:32.114Z,16.63
2019-02-26T10:28:05.805Z,18.77
2019-02-26T10:30:33.969Z,16.33
2019-02-26T10:33:03.539Z,15.57
2019-02-26T10:35:33.701Z,17.67
2019-02-26T10:38:07.734Z,22.53
2019-02-26T10:40:50.195Z,14.73
2019-02-26T10:43:06.526Z,14.00
2019-02-26T10:45:41.644Z,14.43
2019-02-26T10:48:09.247Z,14.13
2019-02-26T10:50:40.379Z,15.00
2019-02-26T10:53:13.151Z,16.67
2019-02-26T10:55:41.801Z,16.70
2019-02-26T10:58:13.136Z,21.77
2019-02-26T11:00:41.603Z,19.20
2019-02-26T11:03:12.911Z,15.03
2019-02-26T11:05:42.632Z,17.00
2019-02-26T11:08:12.383Z,12.87
2019-02-26T11:10:43.910Z,15.30
2019-02-26T11:13:13.066Z,12.43
2019-02-26T11:15:43.802Z,11.37
2019-02-26T11:18:15.017Z,11.87
2019-02-26T11:20:45.843Z,12.27
2019-02-26T11:23:16.261Z,11.07
2019-02-26T11:25:45.584Z,9.87
2019-02-26T11:28:14.743Z,9.07
2019-02-26T11:30:46.550Z,11.30
2019-02-26T11:33:15.761Z,9.10
2019-02-26T11:35:47.149Z,11.47
2019-02-26T11:38:17.867Z,11.43
2019-02-26T11:40:47.682Z,10.47
2019-02-26T11:43:19.864Z,10.33
2019-02-26T11:45:48.303Z,9.50
2019-02-26T11:48:17.810Z,9.53
2019-02-26T11:50:47.195Z,12.23
2019-02-26T11:53:16.511Z,9.13
2019-02-26T11:55:45.483Z,8.60
2019-02-26T11:58:15.897Z,7.90
2019-02-26T12:03:25.420Z,8.33
2019-02-26T12:05:56.617Z,11.77
2019-02-26T12:08:26.218Z,8.43
2019-02-26T12:11:01.120Z,9.37
2019-02-26T12:13:27.657Z,7.40
2019-02-26T12:15:56.834Z,10.00
2019-02-26T12:18:26.007Z,7.27
2019-02-26T12:20:55.179Z,6.57
2019-02-26T12:23:24.244Z,9.50
2019-02-26T12:25:55.425Z,8.37
2019-02-26T12:28:25.473Z,8.07
2019-02-26T12:30:54.719Z,7.50
2019-02-26T12:33:23.695Z,7.63
2019-02-26T12:35:55.550Z,6.63
2019-02-26T12:38:23.888Z,5.77
2019-02-26T12:40:53.581Z,6.93
2019-02-26T12:43:22.860Z,8.10
2019-02-26T12:45:55.226Z,7.13
2019-02-26T12:48:22.840Z,8.73
2019-02-26T12:50:55.377Z,6.77
2019-02-26T12:53:23.693Z,6.27
2019-02-26T12:55:54.303Z,8.07
2019-02-26T12:58:26.804Z,6.40
2019-02-26T13:00:54.630Z,6.80
2019-02-26T13:03:23.919Z,6.00
2019-02-26T13:05:53.611Z,5.57
2019-02-26T13:08:24.116Z,7.57
2019-02-26T13:10:56.155Z,6.57
2019-02-26T13:13:24.088Z,8.00
2019-02-26T13:15:53.138Z,7.27
2019-02-26T13:18:22.194Z,6.90
2019-02-26T13:20:57.200Z,5.60
2019-02-26T13:23:22.866Z,4.90
2019-02-26T13:25:51.908Z,5.43
2019-02-26T13:28:20.882Z,5.93
2019-02-26T13:30:49.858Z,5.47
2019-02-26T13:33:22.223Z,4.80
2019-02-26T13:35:52.333Z,4.87
2019-02-26T13:38:24.542Z,4.73
2019-02-26T13:40:51.242Z,5.60
2019-02-26T13:43:20.699Z,5.00
2019-02-26T13:45:49.894Z,6.30
2019-02-26T13:48:19.014Z,6.30
2019-02-26T13:50:48.589Z,5.70
2019-02-26T13:53:17.669Z,6.70
2019-02-26T13:55:46.862Z,4.63
2019-02-26T13:58:15.926Z,4.83
2019-02-26T14:00:45.043Z,4.00
2019-02-26T14:03:14.648Z,3.70
2019-02-26T14:05:44.386Z,4.70
2019-02-26T14:08:13.497Z,3.70
2019-02-26T14:10:42.548Z,4.70
2019-02-26T14:13:11.926Z,3.87
2019-02-26T14:15:40.997Z,5.53
2019-02-26T14:18:10.035Z,4.70
2019-02-26T14:20:39.255Z,4.87
2019-02-26T14:23:08.299Z,3.97
2019-02-26T14:25:37.282Z,5.00
2019-02-26T14:28:06.265Z,4.93
2019-02-26T14:30:35.234Z,3.90
2019-02-26T14:33:04.696Z,3.17
2019-02-26T14:35:34.371Z,4.00
2019-02-26T14:38:03.738Z,4.97
2019-02-26T14:40:32.794Z,5.13
2019-02-26T14:43:02.337Z,3.40
2019-02-26T14:45:31.385Z,3.90
2019-02-26T14:48:00.270Z,3.47
2019-02-26T14:50:29.918Z,3.00
2019-02-26T14:52:58.895Z,4.07
2019-02-26T14:55:27.939Z,4.70
2019-02-26T14:57:57.008Z,3.40
2019-02-26T15:00:26.928Z,4.33
2019-02-26T15:02:56.489Z,3.10
2019-02-26T15:05:25.833Z,5.27
2019-02-26T15:07:55.907Z,5.10
2019-02-26T15:10:24.884Z,3.23
2019-02-26T15:12:54.389Z,4.00
2019-02-26T15:15:23.452Z,2.90
2019-02-26T15:17:52.484Z,5.00
2019-02-26T15:20:21.947Z,2.10
2019-02-26T15:22:50.931Z,3.43
2019-02-26T15:25:23.274Z,2.33
2019-02-26T15:27:52.328Z,3.13
2019-02-26T15:30:21.382Z,3.13
2019-02-26T15:32:50.436Z,3.63
2019-02-26T15:35:19.431Z,3.47
2019-02-26T15:37:48.482Z,2.87
2019-02-26T15:40:17.472Z,3.43
2019-02-26T15:42:47.185Z,2.57
2019-02-26T15:45:18.501Z,2.70
2019-02-26T15:47:48.024Z,4.37
2019-02-26T15:50:18.151Z,2.27
2019-02-26T15:52:47.407Z,3.00
2019-02-26T15:55:17.618Z,4.27
2019-02-26T15:57:46.947Z,3.23
2019-02-26T16:00:18.714Z,2.30
2019-02-26T16:02:48.613Z,3.27
2019-02-26T16:05:18.049Z,3.50
2019-02-26T16:07:47.459Z,2.93
2019-02-26T16:10:16.582Z,2.67
2019-02-26T16:12:46.118Z,3.10
2019-02-26T16:15:15.210Z,3.97
2019-02-26T16:17:44.350Z,3.63
2019-02-26T16:20:15.455Z,2.67
2019-02-26T16:22:44.707Z,1.30
2019-02-26T16:25:13.755Z,3.03
2019-02-26T16:27:42.894Z,2.03
2019-02-26T16:30:19.306Z,2.47
2019-02-26T16:32:49.005Z,2.27
2019-02-26T16:35:18.057Z,2.70
2019-02-26T16:37:47.102Z,2.80
2019-02-26T16:40:17.017Z,5.80
2019-02-26T16:42:46.075Z,2.20
2019-02-26T16:45:17.182Z,2.53
2019-02-26T16:47:48.681Z,2.63
2019-02-26T16:50:19.357Z,7.13
2019-02-26T16:52:48.538Z,3.03
2019-02-26T16:55:18.073Z,4.30
2019-02-26T16:57:47.616Z,2.53
2019-02-26T17:00:18.273Z,2.70
2019-02-26T17:02:47.467Z,3.40
2019-02-26T17:05:16.936Z,3.33
2019-02-26T17:07:46.355Z,5.37
2019-02-26T17:10:17.853Z,3.90
2019-02-26T17:12:52.990Z,3.93
2019-02-26T17:15:26.790Z,2.97
2019-02-26T17:17:54.725Z,6.23
2019-02-26T17:20:26.281Z,5.83
2019-02-26T17:22:54.975Z,2.97
2019-02-26T17:25:27.286Z,5.77
2019-02-26T17:27:54.825Z,3.50
2019-02-26T17:30:24.668Z,4.70
2019-02-26T17:32:54.085Z,4.70
2019-02-26T17:35:23.055Z,4.97
2019-02-26T17:37:52.154Z,4.47
2019-02-26T17:40:21.243Z,3.10
2019-02-26T17:42:51.266Z,3.63
2019-02-26T17:45:21.518Z,4.23
2019-02-26T17:47:50.672Z,3.70
2019-02-26T17:50:22.756Z,3.30
2019-02-26T17:52:52.185Z,5.10
2019-02-26T17:55:21.155Z,3.63
2019-02-26T17:57:50.125Z,3.57
2019-02-26T18:00:21.235Z,4.13
2019-02-26T18:02:50.283Z,4.87
2019-02-26T18:05:19.472Z,3.40
2019-02-26T18:07:49.521Z,3.37
2019-02-26T18:10:20.075Z,5.10
2019-02-26T18:12:49.116Z,5.47
2019-02-26T18:15:18.501Z,3.63
2019-02-26T18:17:47.677Z,5.57
2019-02-26T18:20:17.714Z,2.83
2019-02-26T18:22:47.162Z,4.40
2019-02-26T18:25:16.885Z,4.07
2019-02-26T18:27:46.706Z,4.00
2019-02-26T18:30:18.039Z,3.40
2019-02-26T18:32:50.247Z,4.47
2019-02-26T18:35:17.887Z,4.23
2019-02-26T18:37:46.963Z,4.67
2019-02-26T18:40:16.460Z,4.10
2019-02-26T18:42:45.535Z,3.30
2019-02-26T18:45:17.294Z,3.80
2019-02-26T18:47:47.658Z,3.33
2019-02-26T18:50:16.783Z,4.30
2019-02-26T18:52:46.114Z,3.63
2019-02-26T18:55:16.914Z,3.40
2019-02-26T18:57:45.980Z,2.90
2019-02-26T19:00:18.302Z,4.57
2019-02-26T19:02:47.340Z,4.43
2019-02-26T19:05:20.473Z,3.80
2019-02-26T19:07:47.296Z,4.10
2019-02-26T19:10:20.647Z,4.93
2019-02-26T19:12:50.048Z,2.63
2019-02-26T19:15:19.707Z,4.13
2019-02-26T19:17:50.334Z,4.77
2019-02-26T19:20:21.756Z,8.63
2019-02-26T19:22:52.015Z,4.27
2019-02-26T19:25:21.415Z,7.03
2019-02-26T19:27:52.838Z,4.17
2019-02-26T19:30:21.694Z,4.13
2019-02-26T19:32:50.753Z,4.70
2019-02-26T19:35:20.204Z,4.00
2019-02-26T19:37:52.738Z,5.37
2019-02-26T19:40:24.926Z,4.90
2019-02-26T19:42:53.895Z,3.67
2019-02-26T19:45:22.946Z,3.33
2019-02-26T19:47:55.775Z,4.67
2019-02-26T19:50:23.556Z,4.87
2019-02-26T19:52:56.920Z,5.77
2019-02-26T19:55:26.438Z,4.47
2019-02-26T19:57:55.436Z,4.00
2019-02-26T20:00:24.501Z,4.73
2019-02-26T20:02:53.841Z,5.33
2019-02-26T20:05:22.886Z,5.47
2019-02-26T20:07:53.278Z,5.67
2019-02-26T20:10:22.591Z,6.20
2019-02-26T20:12:51.634Z,5.50
2019-02-26T20:15:21.909Z,5.20
2019-02-26T20:17:51.444Z,5.60
2019-02-26T20:20:20.514Z,6.10
2019-02-26T20:22:49.975Z,7.37
2019-02-26T20:25:19.249Z,4.80
2019-02-26T20:27:48.303Z,6.03
2019-02-26T20:30:18.763Z,7.27
2019-02-26T20:32:47.811Z,6.93
2019-02-26T20:35:16.844Z,6.40
2019-02-26T20:37:45.909Z,10.60
2019-02-26T20:40:16.994Z,8.13
2019-02-26T20:42:46.042Z,6.13
2019-02-26T20:45:18.762Z,5.07
2019-02-26T20:47:48.314Z,7.07
2019-02-26T20:50:19.887Z,7.30
2019-02-26T20:52:48.421Z,8.03
2019-02-26T20:55:19.203Z,8.77
2019-02-26T20:57:49.107Z,7.37
2019-02-26T21:00:24.976Z,5.93
2019-02-26T21:02:51.935Z,7.90
2019-02-26T21:05:21.053Z,7.60
2019-02-26T21:07:50.073Z,7.77
2019-02-26T21:10:19.695Z,7.60
2019-02-26T21:12:48.757Z,11.37
2019-02-26T21:15:18.433Z,9.00
2019-02-26T21:17:47.474Z,7.37
2019-02-26T21:20:16.430Z,11.53
2019-02-26T21:22:45.532Z,8.40
2019-02-26T21:25:14.535Z,8.53
2019-02-26T21:27:43.573Z,7.47
2019-02-26T21:30:14.978Z,8.40
2019-02-26T21:32:44.020Z,8.60
2019-02-26T21:35:13.111Z,7.53
2019-02-26T21:37:42.175Z,10.67
2019-02-26T21:40:15.873Z,11.53
2019-02-26T21:42:42.873Z,11.77
2019-02-26T21:45:15.962Z,9.83
2019-02-26T21:47:43.924Z,9.70
2019-02-26T21:50:13.443Z,8.10
2019-02-26T21:52:43.290Z,9.17
2019-02-26T21:55:12.521Z,10.97
2019-02-26T21:57:41.580Z,8.60
2019-02-26T22:00:17.028Z,12.47
2019-02-26T22:02:46.291Z,7.90
2019-02-26T22:05:15.277Z,16.27
2019-02-26T22:07:44.354Z,9.40
2019-02-26T22:10:15.308Z,10.43
2019-02-26T22:12:44.682Z,13.50
2019-02-26T22:15:14.126Z,10.80
2019-02-26T22:17:43.731Z,8.33
2019-02-26T22:20:21.999Z,12.63
2019-02-26T22:22:45.074Z,7.77
2019-02-26T22:25:17.128Z,9.17
2019-02-26T22:27:44.926Z,10.20
2019-02-26T22:30:15.505Z,11.77
2019-02-26T22:32:44.545Z,7.60
2019-02-26T22:35:13.752Z,27.95
2019-02-26T22:37:42.883Z,14.77
2019-02-26T22:40:11.994Z,13.37
2019-02-26T22:42:41.335Z,10.90
2019-02-26T22:45:11.495Z,11.70
2019-02-26T22:47:41.238Z,11.70
2019-02-26T22:50:12.129Z,16.17
2019-02-26T22:52:41.248Z,15.40
2019-02-26T22:55:10.842Z,15.67
2019-02-26T22:57:40.005Z,11.30
2019-02-26T23:00:35.213Z,14.50
2019-02-26T23:03:04.296Z,13.07
2019-02-26T23:05:33.642Z,10.47
2019-02-26T23:08:02.797Z,12.43
2019-02-26T23:10:32.355Z,16.17
2019-02-26T23:13:01.499Z,13.33
2019-02-26T23:15:31.395Z,12.43
2019-02-26T23:18:00.623Z,17.43
2019-02-26T23:20:29.679Z,12.87
2019-02-26T23:22:58.774Z,16.27
2019-02-26T23:25:27.842Z,9.97
2019-02-26T23:27:56.850Z,7.33
2019-02-26T23:30:27.186Z,10.83
2019-02-26T23:32:57.003Z,9.00
2019-02-26T23:35:26.052Z,6.87
2019-02-26T23:37:55.526Z,28.80
2019-02-26T23:40:24.931Z,17.13
2019-02-26T23:42:55.360Z,11.73
2019-02-26T23:45:24.852Z,16.63
2019-02-26T23:47:54.100Z,7.90
2019-02-26T23:50:23.207Z,7.50
2019-02-26T23:52:52.654Z,8.93
2019-02-26T23:55:21.732Z,10.97
2019-02-26T23:57:50.777Z,7.87
